Time;durP1;ratioP1;P1;durP2;ratioP2;P2;SDS_P1;SDS_P2;PMS_P1;PMS_P2;Temp;Humidity;BMP_temperature;BMP_pressure;BME280_temperature;BME280_humidity;BME280_pressure;Samples;Min_cycle;Max_cycle;Signal;HPM_P1;HPM_P2
2022/10/22 00:00:34;;;;;;;3.58;0.95;;;16.90;99.90;;;;;;5057690;28;20205;-60
2022/10/22 00:03:01;;;;;;;3.08;0.90;;;16.90;99.90;;;;;;5057615;28;20206;-60
2022/10/22 00:05:28;;;;;;;1.67;0.50;;;16.80;99.90;;;;;;5057703;28;20317;-60
2022/10/22 00:07:56;;;;;;;2.58;0.80;;;16.80;99.90;;;;;;5058010;28;20216;-59
2022/10/22 00:10:23;;;;;;;3.15;0.98;;;16.80;99.90;;;;;;5059219;28;20240;-65
2022/10/22 00:12:50;;;;;;;1.52;0.68;;;16.70;99.90;;;;;;5061403;28;20210;-60
2022/10/22 00:15:17;;;;;;;3.72;0.60;;;16.60;99.90;;;;;;5058863;28;20230;-60
2022/10/22 00:17:44;;;;;;;2.65;0.70;;;16.60;99.90;;;;;;5058821;28;20236;-59
2022/10/22 00:20:11;;;;;;;1.02;0.73;;;16.50;99.90;;;;;;5058036;28;20248;-59
2022/10/22 00:22:38;;;;;;;1.88;0.70;;;16.50;99.90;;;;;;5058528;28;20256;-60
2022/10/22 00:25:07;;;;;;;2.50;0.50;;;16.50;99.90;;;;;;5059002;28;20226;-59
2022/10/22 00:27:34;;;;;;;2.17;0.80;;;16.40;99.90;;;;;;5058328;28;20212;-59
2022/10/22 00:30:01;;;;;;;2.45;0.55;;;16.30;99.90;;;;;;5056905;28;20197;-60
2022/10/22 00:32:28;;;;;;;3.78;1.00;;;16.30;99.90;;;;;;5057225;28;20731;-59
2022/10/22 00:34:55;;;;;;;3.65;0.77;;;16.30;99.90;;;;;;5057513;28;20221;-60
2022/10/22 00:37:22;;;;;;;2.08;0.70;;;16.30;99.90;;;;;;5056765;28;20232;-59
2022/10/22 00:39:48;;;;;;;1.48;0.95;;;16.30;99.90;;;;;;5056748;28;20215;-60
2022/10/22 00:42:24;;;;;;;1.80;0.70;;;16.20;99.90;;;;;;5057373;28;20635;-60
2022/10/22 00:45:06;;;;;;;2.83;0.43;;;16.10;99.90;;;;;;5056742;28;20240;-59
2022/10/22 00:47:37;;;;;;;1.38;0.50;;;16.10;99.90;;;;;;5056781;28;20541;-59
2022/10/22 00:50:08;;;;;;;3.25;0.75;;;16.10;99.90;;;;;;5056934;28;20633;-58
2022/10/22 00:52:35;;;;;;;5.15;0.60;;;16.00;99.90;;;;;;5056566;28;20216;-59
2022/10/22 00:55:02;;;;;;;0.83;0.50;;;16.10;99.90;;;;;;5056899;28;20248;-60
2022/10/22 00:57:31;;;;;;;4.50;0.60;;;16.10;99.90;;;;;;5056312;28;20256;-60
2022/10/22 00:59:58;;;;;;;1.85;0.80;;;16.10;99.90;;;;;;5055155;28;20233;-59
2022/10/22 01:02:25;;;;;;;1.05;0.55;;;16.10;99.90;;;;;;5055495;28;20202;-60
2022/10/22 01:04:52;;;;;;;1.77;0.50;;;16.10;99.90;;;;;;5055902;28;20237;-59
2022/10/22 01:07:21;;;;;;;1.55;0.50;;;16.00;99.90;;;;;;5056306;28;20212;-60
2022/10/22 01:09:57;;;;;;;2.42;0.68;;;16.00;99.90;;;;;;5055301;28;20616;-60
2022/10/22 01:12:35;;;;;;;0.73;0.40;;;16.00;99.90;;;;;;5055160;28;20209;-59
2022/10/22 01:15:11;;;;;;;1.02;0.40;;;16.00;99.90;;;;;;5055505;28;20229;-60
2022/10/22 01:17:48;;;;;;;4.65;0.50;;;16.00;99.90;;;;;;5055499;28;20768;-59
2022/10/22 01:20:27;;;;;;;2.10;0.68;;;16.10;99.90;;;;;;5055089;28;20209;-59
2022/10/22 01:23:02;;;;;;;1.65;0.30;;;16.10;99.90;;;;;;5055850;28;20209;-60
2022/10/22 01:25:35;;;;;;;2.30;0.60;;;16.10;99.90;;;;;;5055433;28;20642;-60
2022/10/22 01:28:15;;;;;;;1.85;0.50;;;16.10;99.90;;;;;;5055556;28;20633;-60
2022/10/22 01:30:45;;;;;;;1.35;0.60;;;16.00;99.90;;;;;;5054206;28;20256;-60
2022/10/22 01:33:16;;;;;;;2.38;0.60;;;16.00;99.90;;;;;;5055806;28;20209;-60
2022/10/22 01:35:45;;;;;;;2.53;0.65;;;15.90;99.90;;;;;;5055224;28;20232;-60
2022/10/22 01:38:15;;;;;;;1.25;0.40;;;15.90;99.90;;;;;;5055178;28;20332;-60
2022/10/22 01:40:42;;;;;;;0.82;0.40;;;15.80;99.90;;;;;;5055211;28;20205;-60
2022/10/22 01:43:11;;;;;;;1.05;0.30;;;15.80;99.90;;;;;;5055056;28;20209;-59
2022/10/22 01:45:42;;;;;;;3.85;0.65;;;15.70;99.90;;;;;;5069600;22;20245;-58
2022/10/22 01:48:26;;;;;;;3.90;0.80;;;15.70;99.90;;;;;;5046814;28;20201;-55
2022/10/22 01:51:17;;;;;;;3.13;0.50;;;15.70;99.90;;;;;;5052469;28;20209;-56
2022/10/22 01:53:53;;;;;;;1.63;0.47;;;15.70;99.90;;;;;;5052575;28;20673;-58
2022/10/22 01:56:39;;;;;;;1.88;0.63;;;15.70;99.90;;;;;;5052911;28;20205;-58
2022/10/22 01:59:14;;;;;;;2.17;0.52;;;15.70;99.90;;;;;;5052057;28;20695;-57
2022/10/22 02:01:49;;;;;;;1.80;0.50;;;15.70;99.90;;;;;;5052742;28;20669;-57
2022/10/22 02:04:20;;;;;;;1.90;0.60;;;15.70;99.90;;;;;;5052442;28;20259;-58
2022/10/22 02:06:49;;;;;;;0.70;0.40;;;15.60;99.90;;;;;;5052615;28;20201;-57
2022/10/22 02:09:20;;;;;;;2.47;0.60;;;15.50;99.90;;;;;;5052092;28;20212;-58
2022/10/22 02:11:48;;;;;;;1.00;0.25;;;15.50;99.90;;;;;;5052366;28;20209;-55
2022/10/22 02:14:17;;;;;;;1.03;0.57;;;15.50;99.90;;;;;;5052131;28;20611;-56
2022/10/22 02:16:46;;;;;;;2.57;0.70;;;15.50;99.90;;;;;;5052305;28;20229;-56
2022/10/22 02:19:22;;;;;;;2.63;0.53;;;15.60;99.90;;;;;;5051720;28;20209;-57
2022/10/22 02:21:49;;;;;;;2.17;0.50;;;15.70;99.90;;;;;;5052043;28;20205;-57
2022/10/22 02:24:16;;;;;;;0.95;0.70;;;15.70;99.90;;;;;;5051820;28;20229;-56
2022/10/22 02:26:48;;;;;;;1.63;0.60;;;15.70;99.90;;;;;;5052430;28;20629;-57
2022/10/22 02:29:20;;;;;;;3.40;0.47;;;15.60;99.90;;;;;;5051234;28;20221;-56
2022/10/22 02:31:48;;;;;;;1.87;0.70;;;15.60;99.90;;;;;;5052159;28;20209;-56
2022/10/22 02:34:21;;;;;;;2.80;0.60;;;15.70;99.90;;;;;;5052140;28;20268;-57
2022/10/22 02:36:49;;;;;;;2.08;0.80;;;15.70;99.90;;;;;;5051750;28;20240;-57
2022/10/22 02:39:16;;;;;;;3.00;0.52;;;15.70;99.90;;;;;;5051220;28;20209;-57
2022/10/22 02:41:43;;;;;;;2.90;0.88;;;15.70;99.90;;;;;;5051924;28;20202;-57
2022/10/22 02:44:11;;;;;;;1.88;0.55;;;15.70;99.90;;;;;;5051526;28;20735;-56
2022/10/22 02:46:38;;;;;;;0.87;0.50;;;15.60;99.90;;;;;;5051867;28;20205;-57
2022/10/22 02:49:05;;;;;;;0.77;0.40;;;15.60;99.90;;;;;;5051350;28;20209;-57
2022/10/22 02:51:33;;;;;;;3.13;0.70;;;15.60;99.90;;;;;;5051773;28;20205;-57
2022/10/22 02:54:00;;;;;;;2.50;0.60;;;15.60;99.90;;;;;;5051594;28;20213;-58
2022/10/22 02:56:27;;;;;;;2.20;0.63;;;15.50;99.90;;;;;;5051404;28;20259;-58
2022/10/22 02:58:54;;;;;;;0.60;0.40;;;15.50;99.90;;;;;;5051043;28;20202;-57
2022/10/22 03:01:20;;;;;;;2.80;0.60;;;15.40;99.90;;;;;;5051698;28;20206;-56
2022/10/22 03:03:47;;;;;;;0.70;0.60;;;15.40;99.90;;;;;;5051583;28;20206;-57
2022/10/22 03:06:14;;;;;;;0.60;0.60;;;15.50;99.90;;;;;;5051529;28;20213;-58
2022/10/22 03:08:42;;;;;;;1.37;0.57;;;15.50;99.90;;;;;;5051519;28;20205;-56
2022/10/22 03:11:09;;;;;;;3.03;1.07;;;15.60;99.90;;;;;;5050842;28;20213;-56
2022/10/22 03:13:35;;;;;;;3.47;0.80;;;15.60;99.90;;;;;;5051466;28;20213;-58
2022/10/22 03:16:02;;;;;;;2.27;0.50;;;15.60;99.90;;;;;;5051414;28;20238;-57
2022/10/22 03:18:29;;;;;;;1.90;0.60;;;15.60;99.90;;;;;;5051523;28;20232;-57
2022/10/22 03:21:07;;;;;;;3.60;0.67;;;15.60;99.90;;;;;;5050710;28;20210;-57
2022/10/22 03:23:35;;;;;;;3.00;0.80;;;15.50;99.90;;;;;;5051252;28;20212;-58
2022/10/22 03:26:05;;;;;;;0.83;0.40;;;15.50;99.90;;;;;;5053176;28;20256;-57
2022/10/22 03:28:33;;;;;;;1.80;0.80;;;15.50;99.90;;;;;;5055375;28;20677;-57
2022/10/22 03:30:59;;;;;;;1.23;0.70;;;15.50;99.90;;;;;;5054615;28;20209;-58
2022/10/22 03:33:26;;;;;;;0.80;0.67;;;15.50;99.90;;;;;;5055196;28;20212;-57
2022/10/22 03:35:53;;;;;;;6.23;1.00;;;15.50;99.90;;;;;;5054831;28;20774;-56
2022/10/22 03:38:19;;;;;;;2.43;0.90;;;15.50;99.90;;;;;;5054925;28;20750;-57
2022/10/22 03:40:47;;;;;;;1.23;0.50;;;15.50;99.90;;;;;;5054540;28;20209;-58
2022/10/22 03:43:16;;;;;;;1.80;0.77;;;15.50;99.90;;;;;;5055092;28;20228;-57
2022/10/22 03:45:42;;;;;;;2.50;1.00;;;15.50;99.90;;;;;;5054862;28;20234;-58
2022/10/22 03:48:09;;;;;;;3.43;0.70;;;15.50;99.90;;;;;;5054752;28;20692;-56
2022/10/22 03:50:36;;;;;;;0.30;0.30;;;15.60;99.90;;;;;;5036529;28;20465;-57
2022/10/22 03:53:03;;;;;;;2.20;0.70;;;15.60;99.90;;;;;;5054683;28;20206;-58
2022/10/22 03:55:30;;;;;;;1.23;0.73;;;15.60;99.90;;;;;;5055038;28;20221;-58
2022/10/22 03:57:56;;;;;;;1.93;0.40;;;15.50;99.90;;;;;;5054705;28;20232;-58
2022/10/22 04:00:24;;;;;;;1.80;0.40;;;15.50;99.90;;;;;;5054429;28;20213;-58
2022/10/22 04:02:51;;;;;;;1.90;0.85;;;15.50;99.90;;;;;;5054968;28;20229;-58
2022/10/22 04:05:18;;;;;;;7.37;0.70;;;15.50;99.90;;;;;;5054258;28;20226;-58
2022/10/22 04:07:44;;;;;;;2.00;1.00;;;15.50;99.90;;;;;;5054669;28;20206;-58
2022/10/22 04:10:11;;;;;;;2.00;1.57;;;15.50;99.90;;;;;;5053824;28;20692;-58
2022/10/22 04:12:38;;;;;;;1.13;1.00;;;15.50;99.90;;;;;;5054459;28;20217;-58
2022/10/22 04:15:06;;;;;;;0.90;0.40;;;15.50;99.90;;;;;;5054298;28;20229;-58
2022/10/22 04:17:37;;;;;;;2.83;0.90;;;15.50;99.90;;;;;;5054719;28;20228;-58
2022/10/22 04:20:05;;;;;;;3.53;1.80;;;15.50;99.90;;;;;;5053767;28;20206;-57
2022/10/22 04:22:33;;;;;;;2.83;0.73;;;15.50;99.90;;;;;;5054420;28;20206;-58
2022/10/22 04:25:00;;;;;;;1.10;0.40;;;15.50;99.90;;;;;;5054004;28;20234;-58
2022/10/22 04:27:30;;;;;;;2.30;0.60;;;15.50;99.90;;;;;;5054129;28;20201;-57
2022/10/22 04:29:56;;;;;;;4.17;0.73;;;15.50;99.90;;;;;;5053353;28;20202;-57
2022/10/22 04:32:23;;;;;;;1.27;0.70;;;15.50;99.90;;;;;;5053861;28;20205;-57
2022/10/22 04:34:51;;;;;;;2.93;0.80;;;15.50;99.90;;;;;;5054075;28;20226;-57
2022/10/22 04:37:18;;;;;;;1.77;1.30;;;15.50;99.90;;;;;;5053242;28;20636;-58
2022/10/22 04:39:45;;;;;;;4.00;1.30;;;15.30;99.90;;;;;;5053333;28;20209;-57
2022/10/22 04:42:11;;;;;;;1.30;0.80;;;15.40;99.90;;;;;;5053821;28;20209;-58
2022/10/22 04:44:38;;;;;;;4.00;3.03;;;15.40;99.90;;;;;;5053443;28;20240;-57
2022/10/22 04:47:05;;;;;;;5.50;1.17;;;15.30;99.90;;;;;;5053561;28;20213;-57
2022/10/22 04:49:31;;;;;;;2.17;0.70;;;15.30;99.90;;;;;;5052994;28;20681;-58
2022/10/22 04:51:59;;;;;;;1.10;0.80;;;15.30;99.90;;;;;;5053735;28;20592;-58
2022/10/22 04:54:26;;;;;;;1.57;0.53;;;15.20;99.90;;;;;;5053524;28;20230;-57
2022/10/22 04:56:53;;;;;;;2.67;1.03;;;15.20;99.90;;;;;;5053463;28;20212;-57
2022/10/22 04:59:20;;;;;;;4.27;1.40;;;15.20;99.90;;;;;;5052610;28;20228;-58
2022/10/22 05:01:46;;;;;;;21.90;18.20;;;15.10;99.90;;;;;;5053664;28;20205;-57
2022/10/22 05:04:15;;;;;;;6.50;5.80;;;15.10;99.90;;;;;;5053441;28;20260;-57
2022/10/22 05:06:42;;;;;;;1.20;0.87;;;15.10;99.90;;;;;;5053354;28;20404;-56
2022/10/22 05:09:12;;;;;;;3.83;1.50;;;15.00;99.90;;;;;;5052209;28;20209;-57
2022/10/22 05:11:44;;;;;;;2.10;1.30;;;14.90;99.90;;;;;;5053300;28;20589;-56
2022/10/22 05:14:11;;;;;;;5.73;4.37;;;14.90;99.90;;;;;;5053529;28;20226;-57
2022/10/22 05:16:38;;;;;;;1.57;0.83;;;14.90;99.90;;;;;;5053156;28;20202;-57
2022/10/22 05:19:05;;;;;;;5.67;1.83;;;14.90;99.90;;;;;;5053069;28;20253;-57
2022/10/22 05:21:32;;;;;;;2.43;0.83;;;14.90;99.90;;;;;;5053056;28;20603;-57
2022/10/22 05:23:59;;;;;;;1.70;0.57;;;14.80;99.90;;;;;;5052796;28;20213;-57
2022/10/22 05:26:28;;;;;;;0.70;0.60;;;14.90;99.90;;;;;;5052826;28;20214;-57
2022/10/22 05:28:55;;;;;;;2.67;1.33;;;14.90;99.90;;;;;;5053340;28;20205;-57
2022/10/22 05:31:22;;;;;;;2.50;1.53;;;14.90;99.90;;;;;;5052130;28;20673;-57
2022/10/22 05:33:49;;;;;;;0.70;0.53;;;14.90;99.90;;;;;;5052739;28;20213;-58
2022/10/22 05:36:17;;;;;;;1.67;0.60;;;14.90;99.90;;;;;;5052648;28;20209;-58
2022/10/22 05:38:44;;;;;;;2.40;0.70;;;14.90;99.90;;;;;;5052599;28;20229;-57
2022/10/22 05:41:13;;;;;;;1.90;0.80;;;14.90;99.90;;;;;;5052048;28;20644;-57
2022/10/22 05:43:41;;;;;;;4.93;0.80;;;14.80;99.90;;;;;;5052961;28;20202;-57
2022/10/22 05:46:09;;;;;;;2.43;0.80;;;14.90;99.90;;;;;;5052467;28;20217;-56
2022/10/22 05:48:36;;;;;;;1.33;0.80;;;14.70;99.90;;;;;;5051923;28;20214;-57
2022/10/22 05:51:04;;;;;;;1.53;0.90;;;14.70;99.90;;;;;;5051659;28;20673;-58
2022/10/22 05:53:31;;;;;;;4.47;2.30;;;14.70;99.90;;;;;;5052341;28;20205;-56
2022/10/22 05:56:01;;;;;;;3.70;1.20;;;14.70;99.90;;;;;;5052379;28;20590;-57
2022/10/22 05:58:27;;;;;;;2.80;1.20;;;14.70;99.90;;;;;;5052413;28;20649;-57
2022/10/22 06:01:01;;;;;;;4.53;1.23;;;14.60;99.90;;;;;;5051882;28;20688;-57
2022/10/22 06:03:28;;;;;;;2.57;1.77;;;14.60;99.90;;;;;;5052298;28;20212;-56
2022/10/22 06:05:55;;;;;;;4.27;1.77;;;14.60;99.90;;;;;;5052160;28;20346;-56
2022/10/22 06:08:22;;;;;;;11.57;8.93;;;14.60;99.90;;;;;;5052161;28;20600;-56
2022/10/22 06:10:48;;;;;;;2.40;1.70;;;14.60;99.90;;;;;;5051806;28;20209;-56
2022/10/22 06:13:15;;;;;;;2.77;2.17;;;14.70;99.90;;;;;;5052037;28;20205;-55
2022/10/22 06:15:42;;;;;;;2.50;1.87;;;14.70;99.90;;;;;;5052005;28;20229;-56
2022/10/22 06:18:11;;;;;;;3.87;1.53;;;14.80;99.90;;;;;;5052033;28;20225;-56
2022/10/22 06:20:37;;;;;;;3.00;1.60;;;14.90;99.90;;;;;;5051372;28;20216;-57
2022/10/22 06:23:04;;;;;;;1.87;0.93;;;15.00;99.90;;;;;;5052199;28;20205;-56
2022/10/22 06:25:31;;;;;;;3.93;1.50;;;15.10;99.90;;;;;;5052454;28;20266;-57
2022/10/22 06:27:57;;;;;;;2.90;1.37;;;15.10;99.90;;;;;;5052070;28;20689;-56
2022/10/22 06:30:24;;;;;;;3.43;1.50;;;15.10;99.90;;;;;;5052176;28;20212;-57
2022/10/22 06:32:51;;;;;;;2.90;1.30;;;15.10;99.90;;;;;;5052182;28;20213;-56
2022/10/22 06:35:19;;;;;;;1.70;1.23;;;15.10;99.90;;;;;;5052383;28;20282;-58
2022/10/22 06:37:46;;;;;;;4.90;2.10;;;15.10;99.90;;;;;;5051955;28;20305;-58
2022/10/22 06:40:15;;;;;;;4.17;2.50;;;15.10;99.90;;;;;;5051216;28;20209;-56
2022/10/22 06:42:42;;;;;;;6.27;1.90;;;15.20;99.90;;;;;;5051909;28;20300;-57
2022/10/22 06:45:10;;;;;;;5.22;2.17;;;15.30;99.90;;;;;;5051544;28;20233;-58
2022/10/22 06:47:37;;;;;;;3.90;1.30;;;15.30;99.90;;;;;;5051558;28;20236;-54
2022/10/22 06:50:04;;;;;;;3.17;0.60;;;15.40;99.90;;;;;;5051093;28;20619;-56
2022/10/22 06:52:32;;;;;;;3.67;0.80;;;15.40;99.90;;;;;;5051756;28;20689;-57
2022/10/22 06:54:59;;;;;;;4.93;1.00;;;15.50;99.90;;;;;;5051904;28;20229;-58
2022/10/22 06:57:26;;;;;;;3.97;1.73;;;15.50;99.90;;;;;;5051655;28;20202;-57
2022/10/22 06:59:52;;;;;;;5.87;1.53;;;15.60;99.90;;;;;;5050964;28;20581;-56
2022/10/22 07:02:19;;;;;;;4.20;1.70;;;15.60;99.90;;;;;;5055228;28;20206;-57
2022/10/22 07:04:46;;;;;;;5.03;1.60;;;15.70;99.90;;;;;;5055738;28;20228;-57
2022/10/22 07:07:13;;;;;;;6.30;1.70;;;15.70;99.90;;;;;;5055555;28;20666;-57
2022/10/22 07:09:44;;;;;;;6.00;1.70;;;15.70;99.90;;;;;;5055022;28;20300;-56
2022/10/22 07:12:11;;;;;;;3.17;1.25;;;15.80;99.90;;;;;;5055524;28;20209;-57
2022/10/22 07:14:38;;;;;;;3.90;1.40;;;15.90;99.90;;;;;;5055319;28;20664;-58
2022/10/22 07:17:04;;;;;;;4.57;1.97;;;16.10;99.90;;;;;;5055408;28;20205;-56
2022/10/22 07:19:31;;;;;;;1.27;0.87;;;16.20;99.90;;;;;;5054900;28;20226;-58
2022/10/22 07:21:58;;;;;;;1.52;1.15;;;16.30;99.90;;;;;;5056051;28;20210;-58
2022/10/22 07:24:25;;;;;;;3.40;1.15;;;16.50;99.90;;;;;;5055249;28;20226;-58
2022/10/22 07:26:53;;;;;;;2.20;0.90;;;16.70;99.90;;;;;;5045266;28;20449;-58
2022/10/22 07:29:20;;;;;;;1.13;0.60;;;16.80;99.90;;;;;;5033586;28;20244;-57
2022/10/22 07:31:47;;;;;;;1.67;0.70;;;17.00;99.90;;;;;;5033896;28;20206;-58
2022/10/22 07:34:14;;;;;;;2.28;0.93;;;17.20;99.90;;;;;;5034091;28;20234;-59
2022/10/22 07:36:40;;;;;;;2.70;1.50;;;17.40;99.90;;;;;;5035850;28;20249;-58
2022/10/22 07:39:07;;;;;;;1.73;1.15;;;17.60;99.90;;;;;;5054068;28;20275;-58
2022/10/22 07:41:34;;;;;;;3.25;1.10;;;17.80;99.90;;;;;;5053183;28;20669;-59
2022/10/22 07:44:05;;;;;;;6.22;2.08;;;17.90;99.90;;;;;;5053458;28;20225;-62
2022/10/22 07:46:34;;;;;;;2.90;1.67;;;18.00;99.90;;;;;;5053350;28;20208;-59
2022/10/22 07:49:00;;;;;;;2.90;1.83;;;18.00;99.90;;;;;;5053604;28;20201;-57
2022/10/22 07:51:27;;;;;;;3.35;1.98;;;17.90;99.90;;;;;;5053190;28;20221;-57
2022/10/22 07:53:54;;;;;;;2.72;1.40;;;17.80;99.90;;;;;;5053502;28;20206;-57
2022/10/22 07:56:21;;;;;;;4.32;1.20;;;17.80;99.90;;;;;;5053258;28;20205;-60
2022/10/22 07:58:47;;;;;;;1.95;1.17;;;17.70;99.90;;;;;;5053325;28;20700;-56
2022/10/22 08:01:15;;;;;;;2.25;1.30;;;17.60;99.90;;;;;;5052779;28;20679;-62
2022/10/22 08:03:42;;;;;;;1.45;1.00;;;17.60;99.90;;;;;;5053406;28;20214;-59
2022/10/22 08:06:10;;;;;;;4.53;1.15;;;17.50;99.90;;;;;;5053453;28;20572;-60
2022/10/22 08:08:36;;;;;;;2.22;1.10;;;17.30;99.90;;;;;;5052564;28;20208;-62
2022/10/22 08:11:03;;;;;;;4.82;1.13;;;17.20;99.90;;;;;;5052932;28;20210;-59
2022/10/22 08:13:30;;;;;;;6.30;1.27;;;17.10;99.90;;;;;;5052230;28;20214;-59
2022/10/22 08:15:58;;;;;;;3.55;1.40;;;17.10;99.90;;;;;;5053036;28;20714;-59
2022/10/22 08:18:26;;;;;;;2.63;1.40;;;17.20;99.90;;;;;;5052821;28;20241;-54
2022/10/22 08:20:53;;;;;;;3.13;1.35;;;17.30;99.90;;;;;;5052788;28;20209;-55
2022/10/22 08:23:20;;;;;;;4.03;1.30;;;17.50;99.90;;;;;;5053696;28;20259;-57
2022/10/22 08:25:47;;;;;;;5.03;1.60;;;17.70;99.90;;;;;;5052864;28;20225;-56
2022/10/22 08:28:13;;;;;;;4.28;1.40;;;17.80;99.90;;;;;;5052679;28;20205;-58
2022/10/22 08:30:41;;;;;;;5.20;2.10;;;17.90;99.90;;;;;;5053101;28;20677;-55
2022/10/22 08:33:08;;;;;;;3.60;1.58;;;18.10;99.90;;;;;;5052957;28;20214;-58
2022/10/22 08:35:36;;;;;;;1.92;0.95;;;18.30;99.90;;;;;;5053688;28;20229;-57
2022/10/22 08:38:03;;;;;;;0.68;0.55;;;18.40;99.90;;;;;;5040252;28;20288;-56
2022/10/22 08:40:33;;;;;;;19.55;1.50;;;18.50;99.90;;;;;;5032712;28;20229;-60
2022/10/22 08:43:28;;;;;;;4.68;1.00;;;18.60;99.90;;;;;;5033266;28;20678;-59
2022/10/22 08:46:17;;;;;;;3.35;0.73;;;18.60;99.90;;;;;;4978595;28;20331;-57
2022/10/22 08:48:47;;;;;;;1.15;0.70;;;18.60;99.90;;;;;;5033002;28;20233;-58
2022/10/22 08:51:19;;;;;;;3.33;1.40;;;18.50;99.90;;;;;;5033049;28;20651;-57
2022/10/22 08:54:08;;;;;;;4.82;1.30;;;18.50;99.90;;;;;;5034047;28;20666;-57
2022/10/22 08:56:36;;;;;;;1.13;0.73;;;18.50;99.90;;;;;;5033836;28;20597;-57
2022/10/22 08:59:11;;;;;;;3.22;0.90;;;18.50;99.90;;;;;;5032746;28;20710;-58
2022/10/22 09:01:41;;;;;;;8.73;1.10;;;18.60;99.90;;;;;;5032318;28;20212;-58
2022/10/22 09:04:16;;;;;;;17.65;1.58;;;18.70;99.90;;;;;;5032945;28;20257;-59
2022/10/22 09:06:46;;;;;;;1.85;0.80;;;18.70;99.90;;;;;;5033199;28;20297;-59
2022/10/22 09:09:16;;;;;;;1.98;1.08;;;18.80;99.90;;;;;;5032474;28;20206;-60
2022/10/22 09:11:46;;;;;;;7.35;1.00;;;18.80;99.90;;;;;;5032146;28;20247;-59
2022/10/22 09:14:17;;;;;;;2.20;0.70;;;18.80;99.90;;;;;;5032384;28;20230;-58
2022/10/22 09:17:05;;;;;;;1.17;0.75;;;18.90;99.90;;;;;;5032125;28;20206;-58
2022/10/22 09:19:38;;;;;;;38.25;3.50;;;18.90;99.90;;;;;;5031388;28;20325;-58
2022/10/22 09:22:17;;;;;;;13.98;1.33;;;18.80;99.90;;;;;;5031636;28;20207;-58
2022/10/22 09:24:47;;;;;;;4.88;1.02;;;18.90;99.90;;;;;;5032457;28;20317;-61
2022/10/22 09:27:16;;;;;;;2.88;0.55;;;18.90;99.90;;;;;;5032640;28;20217;-62
2022/10/22 09:29:44;;;;;;;1.52;0.60;;;19.00;99.90;;;;;;5032863;28;20682;-62
2022/10/22 09:32:11;;;;;;;1.80;0.80;;;19.00;99.90;;;;;;5033125;28;20202;-60
2022/10/22 09:34:38;;;;;;;3.75;0.60;;;19.10;99.90;;;;;;5032460;28;20222;-63
2022/10/22 09:37:09;;;;;;;21.55;1.80;;;19.10;99.90;;;;;;5031672;28;20693;-58
2022/10/22 09:39:39;;;;;;;10.43;1.60;;;19.10;99.90;;;;;;5031204;28;20249;-59
2022/10/22 09:42:07;;;;;;;1.88;1.00;;;19.30;99.90;;;;;;5031912;28;20206;-59
2022/10/22 09:44:35;;;;;;;3.22;0.82;;;19.40;99.90;;;;;;5031759;28;20292;-61
2022/10/22 09:47:04;;;;;;;1.63;0.70;;;19.40;99.90;;;;;;5030905;28;20214;-59
2022/10/22 09:49:34;;;;;;;2.50;0.75;;;19.60;99.90;;;;;;5031639;28;20198;-58
2022/10/22 09:52:02;;;;;;;3.75;0.73;;;19.70;99.90;;;;;;5031766;28;20210;-56
2022/10/22 09:54:40;;;;;;;47.67;3.92;;;19.80;99.90;;;;;;5031658;28;20237;-57
2022/10/22 09:57:15;;;;;;;17.95;1.88;;;20.00;99.90;;;;;;5032066;28;20212;-58
2022/10/22 09:59:43;;;;;;;9.32;1.30;;;20.00;99.90;;;;;;5030941;28;20249;-56
2022/10/22 10:02:13;;;;;;;7.07;1.00;;;20.20;99.90;;;;;;5032426;28;20441;-56
2022/10/22 10:04:42;;;;;;;3.50;0.70;;;20.30;99.90;;;;;;5032554;28;20230;-56
2022/10/22 10:07:16;;;;;;;21.88;12.25;;;20.40;99.90;;;;;;5032633;28;20214;-55
2022/10/22 10:09:44;;;;;;;40.72;3.03;;;20.60;99.90;;;;;;5031638;28;20202;-55
2022/10/22 10:12:23;;;;;;;17.00;1.48;;;20.80;99.90;;;;;;5032639;28;20206;-55
2022/10/22 10:15:02;;;;;;;0.93;0.60;;;20.90;99.90;;;;;;5032928;28;20232;-56
2022/10/22 10:17:36;;;;;;;2.33;0.60;;;20.90;99.90;;;;;;5032058;28;20260;-55
2022/10/22 10:20:16;;;;;;;2.45;0.70;;;21.10;99.90;;;;;;5026836;28;20979;-58
2022/10/22 10:22:53;;;;;;;4.03;0.50;;;21.10;99.90;;;;;;5030795;28;20206;-62
2022/10/22 10:25:41;;;;;;;2.83;0.60;;;21.10;99.90;;;;;;5031675;28;20229;-59
2022/10/22 10:28:28;;;;;;;9.73;0.88;;;21.10;99.90;;;;;;5027010;28;20206;-59
2022/10/22 10:31:06;;;;;;;2.15;1.08;;;21.20;99.90;;;;;;5030720;28;20229;-56
2022/10/22 10:33:45;;;;;;;1.75;0.82;;;21.10;99.90;;;;;;5032160;28;20206;-56
2022/10/22 10:36:19;;;;;;;2.50;0.80;;;21.20;99.90;;;;;;5031759;28;20692;-55
2022/10/22 10:38:56;;;;;;;4.40;1.55;;;21.30;99.90;;;;;;5032274;28;20216;-56
2022/10/22 10:41:33;;;;;;;46.17;3.67;;;21.40;99.90;;;;;;5031776;28;20217;-56
2022/10/22 10:44:23;;;;;;;3.90;2.95;;;21.40;99.90;;;;;;5032075;28;20216;-56
2022/10/22 10:46:59;;;;;;;1.55;0.70;;;21.50;99.90;;;;;;5032648;28;20210;-56
2022/10/22 10:49:28;;;;;;;3.90;1.10;;;21.40;99.90;;;;;;5032054;28;20225;-56
2022/10/22 10:52:02;;;;;;;0.70;0.70;;;21.40;99.90;;;;;;5031325;28;20271;-56
2022/10/22 10:54:40;;;;;;;0.80;0.40;;;21.50;99.90;;;;;;5032035;28;20226;-56
2022/10/22 10:57:19;;;;;;;1.05;0.80;;;21.60;99.90;;;;;;5032049;28;20678;-56
2022/10/22 10:59:57;;;;;;;1.30;0.80;;;21.70;99.90;;;;;;5030945;28;20229;-56
2022/10/22 11:02:47;;;;;;;2.17;0.65;;;21.60;99.90;;;;;;5032324;28;20206;-57
2022/10/22 11:05:25;;;;;;;2.15;0.52;;;21.50;99.90;;;;;;5032017;28;20241;-55
2022/10/22 11:07:56;;;;;;;3.28;0.82;;;21.40;99.90;;;;;;5031967;28;20205;-57
2022/10/22 11:10:29;;;;;;;1.15;0.90;;;21.50;99.90;;;;;;5030899;28;20565;-55
2022/10/22 11:13:03;;;;;;;0.70;0.40;;;21.60;99.90;;;;;;5031393;28;20221;-56
2022/10/22 11:15:33;;;;;;;1.38;0.73;;;21.60;99.90;;;;;;5031322;28;20587;-58
2022/10/22 11:18:06;;;;;;;2.38;0.85;;;21.60;99.90;;;;;;5032131;28;20206;-57
2022/10/22 11:20:43;;;;;;;1.58;0.60;;;21.80;99.90;;;;;;5031838;28;20290;-56
2022/10/22 11:23:14;;;;;;;1.52;0.60;;;21.90;99.90;;;;;;5031958;28;20233;-58
2022/10/22 11:25:44;;;;;;;0.93;0.50;;;22.10;99.90;;;;;;5031962;28;20237;-56
2022/10/22 11:28:17;;;;;;;3.53;2.22;;;22.20;99.90;;;;;;5032449;28;20210;-57
2022/10/22 11:30:47;;;;;;;2.25;0.80;;;22.30;99.90;;;;;;5030929;28;20241;-56
2022/10/22 11:33:18;;;;;;;2.55;0.60;;;22.30;99.90;;;;;;5031466;28;20214;-56
2022/10/22 11:35:47;;;;;;;2.30;0.60;;;22.20;99.90;;;;;;5031943;28;20227;-57
2022/10/22 11:38:17;;;;;;;0.82;0.57;;;22.00;99.90;;;;;;5031495;28;20206;-57
2022/10/22 11:40:47;;;;;;;1.15;0.73;;;21.80;99.90;;;;;;5030765;28;20222;-57
2022/10/22 11:43:30;;;;;;;2.13;0.75;;;21.60;99.90;;;;;;5031877;28;20213;-56
2022/10/22 11:46:02;;;;;;;3.63;0.93;;;21.40;99.90;;;;;;5031395;28;20245;-55
2022/10/22 11:48:36;;;;;;;1.23;0.60;;;21.20;99.90;;;;;;5035621;28;20260;-56
2022/10/22 11:51:03;;;;;;;2.42;0.85;;;21.20;99.90;;;;;;5034881;28;20202;-56
2022/10/22 11:53:32;;;;;;;1.67;1.27;;;21.10;99.90;;;;;;5035071;28;20674;-56
2022/10/22 11:56:04;;;;;;;1.10;0.70;;;21.20;99.90;;;;;;5034972;28;20230;-58
2022/10/22 11:58:41;;;;;;;2.30;0.60;;;21.30;99.90;;;;;;5035313;28;20206;-57
2022/10/22 12:01:29;;;;;;;1.30;0.60;;;21.30;99.90;;;;;;5034538;28;20234;-56
2022/10/22 12:04:18;;;;;;;0.73;0.50;;;21.30;99.90;;;;;;5034918;28;20214;-56
2022/10/22 12:06:56;;;;;;;1.08;0.60;;;21.40;99.90;;;;;;5034804;28;20316;-56
2022/10/22 12:09:25;;;;;;;2.15;1.30;;;21.40;99.90;;;;;;5034856;28;20206;-58
2022/10/22 12:11:52;;;;;;;3.35;1.08;;;21.50;99.90;;;;;;5034043;28;20575;-58
2022/10/22 12:14:25;;;;;;;1.20;0.80;;;21.60;99.90;;;;;;5033838;28;20238;-56
2022/10/22 12:16:55;;;;;;;1.40;0.73;;;21.70;99.90;;;;;;5034010;28;20260;-56
2022/10/22 12:19:29;;;;;;;1.55;0.60;;;21.90;99.90;;;;;;5034714;28;20213;-57
2022/10/22 12:21:58;;;;;;;6.43;1.50;;;21.90;99.90;;;;;;5033662;28;20210;-56
2022/10/22 12:24:29;;;;;;;2.08;0.80;;;21.90;99.90;;;;;;5034068;28;20729;-57
2022/10/22 12:26:56;;;;;;;1.10;0.70;;;22.00;99.90;;;;;;5034108;28;20258;-57
2022/10/22 12:29:25;;;;;;;1.27;0.57;;;21.80;99.90;;;;;;5033785;28;20210;-57
2022/10/22 12:31:52;;;;;;;3.30;2.47;;;21.70;99.90;;;;;;5033707;28;20210;-58
2022/10/22 12:34:23;;;;;;;4.82;1.00;;;21.70;99.90;;;;;;5033982;28;20230;-56
2022/10/22 12:36:52;;;;;;;1.45;0.75;;;21.90;99.90;;;;;;5033771;28;20206;-58
2022/10/22 12:39:21;;;;;;;6.35;0.70;;;22.10;99.90;;;;;;5033887;28;20673;-56
2022/10/22 12:41:48;;;;;;;0.52;0.47;;;22.20;99.90;;;;;;5033891;28;20229;-55
2022/10/22 12:44:17;;;;;;;1.20;0.68;;;22.40;99.90;;;;;;5033815;28;20238;-56
2022/10/22 12:46:48;;;;;;;1.55;0.60;;;22.40;99.90;;;;;;5034225;28;20210;-56
2022/10/22 12:49:19;;;;;;;3.72;0.90;;;22.50;99.90;;;;;;5033696;28;20744;-56
2022/10/22 12:51:47;;;;;;;1.80;0.60;;;22.60;99.90;;;;;;5033036;28;20206;-57
2022/10/22 12:54:24;;;;;;;3.30;2.42;;;22.70;99.90;;;;;;5033417;28;20237;-56
2022/10/22 12:56:52;;;;;;;2.53;0.70;;;22.70;99.90;;;;;;5033869;28;20305;-57
2022/10/22 12:59:22;;;;;;;2.08;0.75;;;22.70;99.90;;;;;;5033078;28;20213;-56